sensor_id;sensor_type;location;lat;lon;timestamp;P1;durP1;ratioP1;P2;durP2;ratioP2
24787;SDS011;12883;52.662;5.196;2023-03-11T00:00:10;1.63;;;1.63;;
24787;SDS011;12883;52.662;5.196;2023-03-11T00:02:38;1.70;;;1.70;;
24787;SDS011;12883;52.662;5.196;2023-03-11T00:05:05;1.97;;;1.97;;
24787;SDS011;12883;52.662;5.196;2023-03-11T00:07:31;1.50;;;1.50;;
24787;SDS011;12883;52.662;5.196;2023-03-11T00:09:57;2.30;;;2.30;;
24787;SDS011;12883;52.662;5.196;2023-03-11T00:12:23;1.50;;;1.50;;
24787;SDS011;12883;52.662;5.196;2023-03-11T00:14:49;1.40;;;1.40;;
24787;SDS011;12883;52.662;5.196;2023-03-11T00:17:14;2.07;;;2.07;;
24787;SDS011;12883;52.662;5.196;2023-03-11T00:19:39;1.77;;;1.77;;
24787;SDS011;12883;52.662;5.196;2023-03-11T00:22:05;1.60;;;1.60;;
24787;SDS011;12883;52.662;5.196;2023-03-11T00:24:30;1.70;;;1.70;;
24787;SDS011;12883;52.662;5.196;2023-03-11T00:26:55;1.40;;;1.40;;
24787;SDS011;12883;52.662;5.196;2023-03-11T00:29:21;2.00;;;2.00;;
24787;SDS011;12883;52.662;5.196;2023-03-11T00:31:46;1.23;;;1.23;;
24787;SDS011;12883;52.662;5.196;2023-03-11T00:34:11;1.37;;;1.37;;
24787;SDS011;12883;52.662;5.196;2023-03-11T00:36:37;1.43;;;1.43;;
24787;SDS011;12883;52.662;5.196;2023-03-11T00:39:02;1.50;;;1.50;;
24787;SDS011;12883;52.662;5.196;2023-03-11T00:41:31;1.87;;;1.87;;
24787;SDS011;12883;52.662;5.196;2023-03-11T00:43:57;1.33;;;1.33;;
24787;SDS011;12883;52.662;5.196;2023-03-11T00:46:22;1.60;;;1.60;;
24787;SDS011;12883;52.662;5.196;2023-03-11T00:48:49;1.30;;;1.30;;
24787;SDS011;12883;52.662;5.196;2023-03-11T00:51:15;1.50;;;1.50;;
24787;SDS011;12883;52.662;5.196;2023-03-11T00:53:41;1.10;;;1.10;;
24787;SDS011;12883;52.662;5.196;2023-03-11T00:56:07;1.10;;;1.10;;
24787;SDS011;12883;52.662;5.196;2023-03-11T00:58:33;1.03;;;1.03;;
24787;SDS011;12883;52.662;5.196;2023-03-11T01:01:00;1.30;;;1.30;;
24787;SDS011;12883;52.662;5.196;2023-03-11T01:03:30;1.20;;;1.20;;
24787;SDS011;12883;52.662;5.196;2023-03-11T01:05:56;1.10;;;1.10;;
24787;SDS011;12883;52.662;5.196;2023-03-11T01:08:21;1.30;;;1.30;;
24787;SDS011;12883;52.662;5.196;2023-03-11T01:10:46;1.13;;;1.13;;
24787;SDS011;12883;52.662;5.196;2023-03-11T01:13:12;1.17;;;1.17;;
24787;SDS011;12883;52.662;5.196;2023-03-11T01:15:37;1.33;;;1.33;;
24787;SDS011;12883;52.662;5.196;2023-03-11T01:18:03;2.30;;;2.30;;
24787;SDS011;12883;52.662;5.196;2023-03-11T01:20:29;1.17;;;1.17;;
24787;SDS011;12883;52.662;5.196;2023-03-11T01:22:55;1.40;;;1.40;;
24787;SDS011;12883;52.662;5.196;2023-03-11T01:25:21;1.40;;;1.40;;
24787;SDS011;12883;52.662;5.196;2023-03-11T01:27:47;1.20;;;1.20;;
24787;SDS011;12883;52.662;5.196;2023-03-11T01:30:14;1.77;;;1.77;;
24787;SDS011;12883;52.662;5.196;2023-03-11T01:32:42;1.70;;;1.70;;
24787;SDS011;12883;52.662;5.196;2023-03-11T01:35:09;1.40;;;1.40;;
24787;SDS011;12883;52.662;5.196;2023-03-11T01:37:37;1.10;;;1.10;;
24787;SDS011;12883;52.662;5.196;2023-03-11T01:40:02;1.10;;;1.10;;
24787;SDS011;12883;52.662;5.196;2023-03-11T01:42:28;1.10;;;1.10;;
24787;SDS011;12883;52.662;5.196;2023-03-11T01:44:53;1.00;;;1.00;;
24787;SDS011;12883;52.662;5.196;2023-03-11T01:47:31;1.00;;;1.00;;
24787;SDS011;12883;52.662;5.196;2023-03-11T01:49:58;1.33;;;1.33;;
24787;SDS011;12883;52.662;5.196;2023-03-11T01:52:25;0.93;;;0.93;;
24787;SDS011;12883;52.662;5.196;2023-03-11T01:54:50;1.17;;;1.17;;
24787;SDS011;12883;52.662;5.196;2023-03-11T01:57:16;1.13;;;1.13;;
24787;SDS011;12883;52.662;5.196;2023-03-11T01:59:46;1.20;;;1.20;;
24787;SDS011;12883;52.662;5.196;2023-03-11T02:04:45;0.93;;;0.93;;
24787;SDS011;12883;52.662;5.196;2023-03-11T02:07:11;0.90;;;0.90;;
24787;SDS011;12883;52.662;5.196;2023-03-11T02:09:38;1.27;;;1.27;;
24787;SDS011;12883;52.662;5.196;2023-03-11T02:12:04;0.87;;;0.87;;
24787;SDS011;12883;52.662;5.196;2023-03-11T02:14:31;0.80;;;0.80;;
24787;SDS011;12883;52.662;5.196;2023-03-11T02:16:59;0.90;;;0.90;;
24787;SDS011;12883;52.662;5.196;2023-03-11T02:19:27;1.00;;;1.00;;
24787;SDS011;12883;52.662;5.196;2023-03-11T02:22:02;0.97;;;0.97;;
24787;SDS011;12883;52.662;5.196;2023-03-11T02:24:30;0.90;;;0.90;;
24787;SDS011;12883;52.662;5.196;2023-03-11T02:27:05;1.10;;;1.10;;
24787;SDS011;12883;52.662;5.196;2023-03-11T02:29:33;0.93;;;0.93;;
24787;SDS011;12883;52.662;5.196;2023-03-11T02:31:59;1.20;;;1.20;;
24787;SDS011;12883;52.662;5.196;2023-03-11T02:34:32;1.20;;;1.20;;
24787;SDS011;12883;52.662;5.196;2023-03-11T02:36:59;0.97;;;0.97;;
24787;SDS011;12883;52.662;5.196;2023-03-11T02:39:32;1.47;;;1.47;;
24787;SDS011;12883;52.662;5.196;2023-03-11T02:42:13;1.33;;;1.33;;
24787;SDS011;12883;52.662;5.196;2023-03-11T02:44:40;1.37;;;1.37;;
24787;SDS011;12883;52.662;5.196;2023-03-11T02:47:08;1.10;;;1.10;;
24787;SDS011;12883;52.662;5.196;2023-03-11T02:49:34;1.00;;;1.00;;
24787;SDS011;12883;52.662;5.196;2023-03-11T02:52:00;0.97;;;0.97;;
24787;SDS011;12883;52.662;5.196;2023-03-11T02:54:26;1.30;;;1.30;;
24787;SDS011;12883;52.662;5.196;2023-03-11T02:56:51;1.07;;;1.07;;
24787;SDS011;12883;52.662;5.196;2023-03-11T02:59:16;1.00;;;1.00;;
24787;SDS011;12883;52.662;5.196;2023-03-11T03:01:42;1.40;;;1.40;;
24787;SDS011;12883;52.662;5.196;2023-03-11T03:04:07;0.83;;;0.83;;
24787;SDS011;12883;52.662;5.196;2023-03-11T03:06:32;1.37;;;1.37;;
24787;SDS011;12883;52.662;5.196;2023-03-11T03:08:58;0.97;;;0.97;;
24787;SDS011;12883;52.662;5.196;2023-03-11T03:11:23;0.80;;;0.80;;
24787;SDS011;12883;52.662;5.196;2023-03-11T03:13:48;1.10;;;1.10;;
24787;SDS011;12883;52.662;5.196;2023-03-11T03:16:14;0.90;;;0.90;;
24787;SDS011;12883;52.662;5.196;2023-03-11T03:18:39;1.00;;;1.00;;
24787;SDS011;12883;52.662;5.196;2023-03-11T03:21:04;0.87;;;0.87;;
24787;SDS011;12883;52.662;5.196;2023-03-11T03:23:30;1.20;;;1.20;;
24787;SDS011;12883;52.662;5.196;2023-03-11T03:25:59;1.00;;;1.00;;
24787;SDS011;12883;52.662;5.196;2023-03-11T03:28:25;1.20;;;1.20;;
24787;SDS011;12883;52.662;5.196;2023-03-11T03:30:51;1.00;;;1.00;;
24787;SDS011;12883;52.662;5.196;2023-03-11T03:33:16;1.40;;;1.40;;
24787;SDS011;12883;52.662;5.196;2023-03-11T03:35:42;0.87;;;0.87;;
24787;SDS011;12883;52.662;5.196;2023-03-11T03:38:09;1.30;;;1.30;;
24787;SDS011;12883;52.662;5.196;2023-03-11T03:40:34;1.03;;;1.03;;
24787;SDS011;12883;52.662;5.196;2023-03-11T03:43:00;1.53;;;1.53;;
24787;SDS011;12883;52.662;5.196;2023-03-11T03:45:25;1.03;;;1.03;;
24787;SDS011;12883;52.662;5.196;2023-03-11T03:47:50;1.20;;;1.20;;
24787;SDS011;12883;52.662;5.196;2023-03-11T03:50:16;1.30;;;1.30;;
24787;SDS011;12883;52.662;5.196;2023-03-11T03:52:41;0.97;;;0.97;;
24787;SDS011;12883;52.662;5.196;2023-03-11T03:55:06;1.00;;;1.00;;
24787;SDS011;12883;52.662;5.196;2023-03-11T03:57:32;0.90;;;0.90;;
24787;SDS011;12883;52.662;5.196;2023-03-11T03:59:57;1.03;;;1.03;;
24787;SDS011;12883;52.662;5.196;2023-03-11T04:02:23;0.90;;;0.90;;
24787;SDS011;12883;52.662;5.196;2023-03-11T04:04:48;1.10;;;1.10;;
24787;SDS011;12883;52.662;5.196;2023-03-11T04:07:14;0.70;;;0.70;;
24787;SDS011;12883;52.662;5.196;2023-03-11T04:09:40;0.90;;;0.90;;
24787;SDS011;12883;52.662;5.196;2023-03-11T04:12:08;0.90;;;0.90;;
24787;SDS011;12883;52.662;5.196;2023-03-11T04:14:37;0.57;;;0.57;;
24787;SDS011;12883;52.662;5.196;2023-03-11T04:17:02;1.00;;;1.00;;
24787;SDS011;12883;52.662;5.196;2023-03-11T04:19:28;0.97;;;0.97;;
24787;SDS011;12883;52.662;5.196;2023-03-11T04:21:53;0.97;;;0.97;;
24787;SDS011;12883;52.662;5.196;2023-03-11T04:24:18;1.13;;;1.13;;
24787;SDS011;12883;52.662;5.196;2023-03-11T04:26:44;0.70;;;0.70;;
24787;SDS011;12883;52.662;5.196;2023-03-11T04:29:09;1.70;;;1.70;;
24787;SDS011;12883;52.662;5.196;2023-03-11T04:31:35;0.87;;;0.87;;
24787;SDS011;12883;52.662;5.196;2023-03-11T04:34:00;1.03;;;1.03;;
24787;SDS011;12883;52.662;5.196;2023-03-11T04:36:26;1.00;;;1.00;;
24787;SDS011;12883;52.662;5.196;2023-03-11T04:38:51;0.80;;;0.80;;
24787;SDS011;12883;52.662;5.196;2023-03-11T04:41:17;1.07;;;1.07;;
24787;SDS011;12883;52.662;5.196;2023-03-11T04:43:42;1.10;;;1.10;;
24787;SDS011;12883;52.662;5.196;2023-03-11T04:46:08;1.00;;;1.00;;
24787;SDS011;12883;52.662;5.196;2023-03-11T04:48:33;0.93;;;0.93;;
24787;SDS011;12883;52.662;5.196;2023-03-11T04:50:58;0.87;;;0.87;;
24787;SDS011;12883;52.662;5.196;2023-03-11T04:53:24;0.93;;;0.93;;
24787;SDS011;12883;52.662;5.196;2023-03-11T04:55:49;0.87;;;0.87;;
24787;SDS011;12883;52.662;5.196;2023-03-11T04:58:15;1.70;;;1.70;;
24787;SDS011;12883;52.662;5.196;2023-03-11T05:00:40;1.10;;;1.10;;
24787;SDS011;12883;52.662;5.196;2023-03-11T05:03:05;0.80;;;0.80;;
24787;SDS011;12883;52.662;5.196;2023-03-11T05:05:31;1.00;;;1.00;;
24787;SDS011;12883;52.662;5.196;2023-03-11T05:07:56;1.33;;;1.33;;
24787;SDS011;12883;52.662;5.196;2023-03-11T05:10:21;1.00;;;1.00;;
24787;SDS011;12883;52.662;5.196;2023-03-11T05:12:48;1.57;;;1.57;;
24787;SDS011;12883;52.662;5.196;2023-03-11T05:15:13;1.07;;;1.07;;
24787;SDS011;12883;52.662;5.196;2023-03-11T05:17:39;1.00;;;1.00;;
24787;SDS011;12883;52.662;5.196;2023-03-11T05:20:04;1.00;;;1.00;;
24787;SDS011;12883;52.662;5.196;2023-03-11T05:22:31;1.10;;;1.10;;
24787;SDS011;12883;52.662;5.196;2023-03-11T05:24:57;1.00;;;1.00;;
24787;SDS011;12883;52.662;5.196;2023-03-11T05:27:22;1.10;;;1.10;;
24787;SDS011;12883;52.662;5.196;2023-03-11T05:29:48;1.30;;;1.30;;
24787;SDS011;12883;52.662;5.196;2023-03-11T05:32:13;1.50;;;1.50;;
24787;SDS011;12883;52.662;5.196;2023-03-11T05:34:38;1.13;;;1.13;;
24787;SDS011;12883;52.662;5.196;2023-03-11T05:37:04;1.03;;;1.03;;
24787;SDS011;12883;52.662;5.196;2023-03-11T05:39:29;0.90;;;0.90;;
24787;SDS011;12883;52.662;5.196;2023-03-11T05:41:55;1.47;;;1.47;;
24787;SDS011;12883;52.662;5.196;2023-03-11T05:44:21;0.90;;;0.90;;
24787;SDS011;12883;52.662;5.196;2023-03-11T05:46:46;1.20;;;1.20;;
24787;SDS011;12883;52.662;5.196;2023-03-11T05:49:11;0.93;;;0.93;;
24787;SDS011;12883;52.662;5.196;2023-03-11T05:51:37;0.97;;;0.97;;
24787;SDS011;12883;52.662;5.196;2023-03-11T05:54:02;1.20;;;1.20;;
24787;SDS011;12883;52.662;5.196;2023-03-11T05:56:28;1.00;;;1.00;;
24787;SDS011;12883;52.662;5.196;2023-03-11T05:58:55;1.03;;;1.03;;
24787;SDS011;12883;52.662;5.196;2023-03-11T06:01:21;1.20;;;1.20;;
24787;SDS011;12883;52.662;5.196;2023-03-11T06:03:46;1.10;;;1.10;;
24787;SDS011;12883;52.662;5.196;2023-03-11T06:06:12;0.90;;;0.90;;
24787;SDS011;12883;52.662;5.196;2023-03-11T06:08:38;1.27;;;1.27;;
24787;SDS011;12883;52.662;5.196;2023-03-11T06:11:07;0.73;;;0.73;;
24787;SDS011;12883;52.662;5.196;2023-03-11T06:13:34;1.60;;;1.60;;
24787;SDS011;12883;52.662;5.196;2023-03-11T06:16:01;1.77;;;1.77;;
24787;SDS011;12883;52.662;5.196;2023-03-11T06:18:26;1.30;;;1.30;;
24787;SDS011;12883;52.662;5.196;2023-03-11T06:20:52;0.90;;;0.90;;
24787;SDS011;12883;52.662;5.196;2023-03-11T06:23:18;1.60;;;1.60;;
24787;SDS011;12883;52.662;5.196;2023-03-11T06:25:53;1.70;;;1.70;;
24787;SDS011;12883;52.662;5.196;2023-03-11T06:28:22;1.90;;;1.90;;
24787;SDS011;12883;52.662;5.196;2023-03-11T06:30:47;1.63;;;1.63;;
24787;SDS011;12883;52.662;5.196;2023-03-11T06:33:12;1.10;;;1.10;;
24787;SDS011;12883;52.662;5.196;2023-03-11T06:35:39;1.37;;;1.37;;
24787;SDS011;12883;52.662;5.196;2023-03-11T06:38:04;1.70;;;1.70;;
24787;SDS011;12883;52.662;5.196;2023-03-11T06:40:30;1.17;;;1.17;;
24787;SDS011;12883;52.662;5.196;2023-03-11T06:42:55;0.90;;;0.90;;
24787;SDS011;12883;52.662;5.196;2023-03-11T06:45:20;1.10;;;1.10;;
24787;SDS011;12883;52.662;5.196;2023-03-11T06:47:46;1.40;;;1.40;;
24787;SDS011;12883;52.662;5.196;2023-03-11T06:50:11;1.20;;;1.20;;
24787;SDS011;12883;52.662;5.196;2023-03-11T06:52:37;1.20;;;1.20;;
24787;SDS011;12883;52.662;5.196;2023-03-11T06:55:02;1.90;;;1.90;;
24787;SDS011;12883;52.662;5.196;2023-03-11T06:57:28;1.57;;;1.57;;
24787;SDS011;12883;52.662;5.196;2023-03-11T06:59:54;1.17;;;1.17;;
24787;SDS011;12883;52.662;5.196;2023-03-11T07:02:20;1.77;;;1.77;;
24787;SDS011;12883;52.662;5.196;2023-03-11T07:04:47;1.60;;;1.60;;
24787;SDS011;12883;52.662;5.196;2023-03-11T07:07:13;3.20;;;3.20;;
24787;SDS011;12883;52.662;5.196;2023-03-11T07:09:38;2.53;;;2.53;;
24787;SDS011;12883;52.662;5.196;2023-03-11T07:12:03;1.50;;;1.50;;
24787;SDS011;12883;52.662;5.196;2023-03-11T07:14:29;1.93;;;1.93;;
24787;SDS011;12883;52.662;5.196;2023-03-11T07:16:54;1.97;;;1.97;;
24787;SDS011;12883;52.662;5.196;2023-03-11T07:19:20;1.73;;;1.73;;
24787;SDS011;12883;52.662;5.196;2023-03-11T07:21:45;1.73;;;1.73;;
24787;SDS011;12883;52.662;5.196;2023-03-11T07:24:11;1.80;;;1.80;;
24787;SDS011;12883;52.662;5.196;2023-03-11T07:26:38;1.80;;;1.80;;
24787;SDS011;12883;52.662;5.196;2023-03-11T07:29:03;1.80;;;1.80;;
24787;SDS011;12883;52.662;5.196;2023-03-11T07:31:30;1.30;;;1.30;;
24787;SDS011;12883;52.662;5.196;2023-03-11T07:33:57;1.20;;;1.20;;
24787;SDS011;12883;52.662;5.196;2023-03-11T07:36:24;1.00;;;1.00;;
24787;SDS011;12883;52.662;5.196;2023-03-11T07:38:55;1.10;;;1.10;;
24787;SDS011;12883;52.662;5.196;2023-03-11T07:41:27;1.00;;;1.00;;
24787;SDS011;12883;52.662;5.196;2023-03-11T07:43:54;1.17;;;1.17;;
24787;SDS011;12883;52.662;5.196;2023-03-11T07:46:21;1.43;;;1.43;;
24787;SDS011;12883;52.662;5.196;2023-03-11T07:48:48;1.60;;;1.60;;
24787;SDS011;12883;52.662;5.196;2023-03-11T07:51:16;1.67;;;1.67;;
24787;SDS011;12883;52.662;5.196;2023-03-11T07:53:44;1.80;;;1.80;;
24787;SDS011;12883;52.662;5.196;2023-03-11T07:56:11;2.10;;;2.10;;
24787;SDS011;12883;52.662;5.196;2023-03-11T07:58:37;2.83;;;2.83;;
24787;SDS011;12883;52.662;5.196;2023-03-11T08:01:07;2.70;;;2.70;;
24787;SDS011;12883;52.662;5.196;2023-03-11T08:03:34;2.80;;;2.80;;
24787;SDS011;12883;52.662;5.196;2023-03-11T08:06:00;3.13;;;3.13;;
24787;SDS011;12883;52.662;5.196;2023-03-11T08:08:26;3.30;;;3.30;;
24787;SDS011;12883;52.662;5.196;2023-03-11T08:10:51;3.07;;;3.07;;
24787;SDS011;12883;52.662;5.196;2023-03-11T08:13:17;3.10;;;3.10;;
24787;SDS011;12883;52.662;5.196;2023-03-11T08:15:42;2.33;;;2.33;;
24787;SDS011;12883;52.662;5.196;2023-03-11T08:18:07;3.63;;;3.63;;
24787;SDS011;12883;52.662;5.196;2023-03-11T08:20:33;1.93;;;1.93;;
24787;SDS011;12883;52.662;5.196;2023-03-11T08:23:01;1.80;;;1.80;;
24787;SDS011;12883;52.662;5.196;2023-03-11T08:25:26;1.83;;;1.83;;
24787;SDS011;12883;52.662;5.196;2023-03-11T08:27:52;0.97;;;0.97;;
24787;SDS011;12883;52.662;5.196;2023-03-11T08:30:17;1.00;;;1.00;;
24787;SDS011;12883;52.662;5.196;2023-03-11T08:32:42;1.50;;;1.50;;
24787;SDS011;12883;52.662;5.196;2023-03-11T08:35:08;1.87;;;1.87;;
24787;SDS011;12883;52.662;5.196;2023-03-11T08:37:34;1.53;;;1.53;;
24787;SDS011;12883;52.662;5.196;2023-03-11T08:39:59;1.43;;;1.43;;
24787;SDS011;12883;52.662;5.196;2023-03-11T08:42:25;1.37;;;1.37;;
24787;SDS011;12883;52.662;5.196;2023-03-11T08:44:50;1.37;;;1.37;;
24787;SDS011;12883;52.662;5.196;2023-03-11T08:47:15;1.47;;;1.47;;
24787;SDS011;12883;52.662;5.196;2023-03-11T08:49:41;1.27;;;1.27;;
24787;SDS011;12883;52.662;5.196;2023-03-11T08:52:06;1.67;;;1.67;;
24787;SDS011;12883;52.662;5.196;2023-03-11T08:54:31;1.47;;;1.47;;
24787;SDS011;12883;52.662;5.196;2023-03-11T08:56:57;1.43;;;1.43;;
24787;SDS011;12883;52.662;5.196;2023-03-11T08:59:26;1.20;;;1.20;;
24787;SDS011;12883;52.662;5.196;2023-03-11T09:01:53;1.20;;;1.20;;
24787;SDS011;12883;52.662;5.196;2023-03-11T09:04:18;1.60;;;1.60;;
24787;SDS011;12883;52.662;5.196;2023-03-11T09:06:43;1.10;;;1.10;;
24787;SDS011;12883;52.662;5.196;2023-03-11T09:09:10;1.47;;;1.47;;
24787;SDS011;12883;52.662;5.196;2023-03-11T09:11:36;1.40;;;1.40;;
24787;SDS011;12883;52.662;5.196;2023-03-11T09:14:02;1.60;;;1.60;;
24787;SDS011;12883;52.662;5.196;2023-03-11T09:16:28;1.20;;;1.20;;
24787;SDS011;12883;52.662;5.196;2023-03-11T09:18:54;1.20;;;1.20;;
24787;SDS011;12883;52.662;5.196;2023-03-11T09:21:19;1.70;;;1.70;;
24787;SDS011;12883;52.662;5.196;2023-03-11T09:23:45;1.17;;;1.17;;
24787;SDS011;12883;52.662;5.196;2023-03-11T09:26:11;1.30;;;1.30;;
24787;SDS011;12883;52.662;5.196;2023-03-11T09:28:38;1.80;;;1.80;;
24787;SDS011;12883;52.662;5.196;2023-03-11T09:31:04;1.40;;;1.40;;
24787;SDS011;12883;52.662;5.196;2023-03-11T09:33:30;1.43;;;1.43;;
24787;SDS011;12883;52.662;5.196;2023-03-11T09:35:56;1.53;;;1.53;;
24787;SDS011;12883;52.662;5.196;2023-03-11T09:38:22;1.80;;;1.80;;
24787;SDS011;12883;52.662;5.196;2023-03-11T09:40:50;1.57;;;1.57;;
24787;SDS011;12883;52.662;5.196;2023-03-11T09:46:10;1.43;;;1.43;;
24787;SDS011;12883;52.662;5.196;2023-03-11T09:48:39;1.77;;;1.77;;
24787;SDS011;12883;52.662;5.196;2023-03-11T09:51:14;0.90;;;0.90;;
24787;SDS011;12883;52.662;5.196;2023-03-11T09:53:49;1.43;;;1.43;;
24787;SDS011;12883;52.662;5.196;2023-03-11T09:56:23;2.70;;;2.70;;
24787;SDS011;12883;52.662;5.196;2023-03-11T09:58:50;1.90;;;1.90;;
24787;SDS011;12883;52.662;5.196;2023-03-11T10:01:23;1.30;;;1.30;;
24787;SDS011;12883;52.662;5.196;2023-03-11T10:03:56;1.57;;;1.57;;
24787;SDS011;12883;52.662;5.196;2023-03-11T10:06:28;1.33;;;1.33;;
24787;SDS011;12883;52.662;5.196;2023-03-11T10:12:19;1.73;;;1.73;;
24787;SDS011;12883;52.662;5.196;2023-03-11T10:15:09;1.70;;;1.70;;
24787;SDS011;12883;52.662;5.196;2023-03-11T10:20:34;1.50;;;1.50;;
24787;SDS011;12883;52.662;5.196;2023-03-11T10:23:26;2.10;;;2.10;;
24787;SDS011;12883;52.662;5.196;2023-03-11T10:26:10;1.77;;;1.77;;
24787;SDS011;12883;52.662;5.196;2023-03-11T10:28:44;1.60;;;1.60;;
24787;SDS011;12883;52.662;5.196;2023-03-11T10:36:28;1.73;;;1.73;;
24787;SDS011;12883;52.662;5.196;2023-03-11T10:39:19;1.73;;;1.73;;
24787;SDS011;12883;52.662;5.196;2023-03-11T10:41:49;1.87;;;1.87;;
24787;SDS011;12883;52.662;5.196;2023-03-11T10:44:19;1.47;;;1.47;;
24787;SDS011;12883;52.662;5.196;2023-03-11T10:46:49;2.07;;;2.07;;
24787;SDS011;12883;52.662;5.196;2023-03-11T10:49:18;2.27;;;2.27;;
24787;SDS011;12883;52.662;5.196;2023-03-11T10:51:44;1.70;;;1.70;;
24787;SDS011;12883;52.662;5.196;2023-03-11T10:54:22;2.10;;;2.10;;
24787;SDS011;12883;52.662;5.196;2023-03-11T10:56:49;2.13;;;2.13;;
24787;SDS011;12883;52.662;5.196;2023-03-11T10:59:24;2.47;;;2.47;;
24787;SDS011;12883;52.662;5.196;2023-03-11T11:01:53;3.23;;;3.23;;
24787;SDS011;12883;52.662;5.196;2023-03-11T11:04:32;2.20;;;2.20;;
24787;SDS011;12883;52.662;5.196;2023-03-11T11:07:43;1.73;;;1.73;;
24787;SDS011;12883;52.662;5.196;2023-03-11T11:12:57;1.60;;;1.60;;
24787;SDS011;12883;52.662;5.196;2023-03-11T11:15:50;2.00;;;2.00;;
24787;SDS011;12883;52.662;5.196;2023-03-11T11:18:17;1.40;;;1.40;;
24787;SDS011;12883;52.662;5.196;2023-03-11T11:23:27;1.50;;;1.50;;
24787;SDS011;12883;52.662;5.196;2023-03-11T11:25:57;1.30;;;1.30;;
24787;SDS011;12883;52.662;5.196;2023-03-11T11:28:24;1.30;;;1.30;;
24787;SDS011;12883;52.662;5.196;2023-03-11T11:30:54;1.77;;;1.77;;
24787;SDS011;12883;52.662;5.196;2023-03-11T11:33:30;1.80;;;1.80;;
24787;SDS011;12883;52.662;5.196;2023-03-11T11:36:01;1.30;;;1.30;;
24787;SDS011;12883;52.662;5.196;2023-03-11T11:38:28;1.63;;;1.63;;
24787;SDS011;12883;52.662;5.196;2023-03-11T11:40:56;1.50;;;1.50;;
24787;SDS011;12883;52.662;5.196;2023-03-11T11:43:35;2.13;;;2.13;;
24787;SDS011;12883;52.662;5.196;2023-03-11T11:46:14;1.67;;;1.67;;
24787;SDS011;12883;52.662;5.196;2023-03-11T11:49:01;2.17;;;2.17;;
24787;SDS011;12883;52.662;5.196;2023-03-11T11:51:35;1.90;;;1.90;;
24787;SDS011;12883;52.662;5.196;2023-03-11T11:56:31;1.27;;;1.27;;
24787;SDS011;12883;52.662;5.196;2023-03-11T11:58:57;1.53;;;1.53;;
24787;SDS011;12883;52.662;5.196;2023-03-11T12:01:29;1.60;;;1.60;;
24787;SDS011;12883;52.662;5.196;2023-03-11T12:09:53;1.20;;;1.20;;
24787;SDS011;12883;52.662;5.196;2023-03-11T12:12:28;1.53;;;1.53;;
24787;SDS011;12883;52.662;5.196;2023-03-11T12:15:09;1.27;;;1.27;;
24787;SDS011;12883;52.662;5.196;2023-03-11T12:17:43;0.90;;;0.90;;
24787;SDS011;12883;52.662;5.196;2023-03-11T12:20:19;1.23;;;1.23;;
24787;SDS011;12883;52.662;5.196;2023-03-11T12:25:41;1.30;;;1.30;;
24787;SDS011;12883;52.662;5.196;2023-03-11T12:31:02;1.00;;;1.00;;
24787;SDS011;12883;52.662;5.196;2023-03-11T12:36:01;0.80;;;0.80;;
24787;SDS011;12883;52.662;5.196;2023-03-11T12:38:31;1.00;;;1.00;;
24787;SDS011;12883;52.662;5.196;2023-03-11T12:46:02;0.90;;;0.90;;
24787;SDS011;12883;52.662;5.196;2023-03-11T12:48:40;0.90;;;0.90;;
24787;SDS011;12883;52.662;5.196;2023-03-11T12:51:06;1.10;;;1.10;;
24787;SDS011;12883;52.662;5.196;2023-03-11T12:53:50;0.90;;;0.90;;
24787;SDS011;12883;52.662;5.196;2023-03-11T12:56:36;1.03;;;1.03;;
24787;SDS011;12883;52.662;5.196;2023-03-11T13:05:15;1.00;;;1.00;;
24787;SDS011;12883;52.662;5.196;2023-03-11T13:07:46;1.07;;;1.07;;
24787;SDS011;12883;52.662;5.196;2023-03-11T13:10:20;0.73;;;0.73;;
24787;SDS011;12883;52.662;5.196;2023-03-11T13:15:55;0.70;;;0.70;;
24787;SDS011;12883;52.662;5.196;2023-03-11T13:23:21;0.87;;;0.87;;
24787;SDS011;12883;52.662;5.196;2023-03-11T13:36:35;0.93;;;0.93;;
24787;SDS011;12883;52.662;5.196;2023-03-11T13:41:47;0.70;;;0.70;;
24787;SDS011;12883;52.662;5.196;2023-03-11T13:46:46;0.70;;;0.70;;
24787;SDS011;12883;52.662;5.196;2023-03-11T13:49:23;0.73;;;0.73;;
24787;SDS011;12883;52.662;5.196;2023-03-11T13:52:13;1.00;;;1.00;;
24787;SDS011;12883;52.662;5.196;2023-03-11T13:54:52;0.60;;;0.60;;
24787;SDS011;12883;52.662;5.196;2023-03-11T13:57:29;0.90;;;0.90;;
24787;SDS011;12883;52.662;5.196;2023-03-11T14:03:00;1.00;;;1.00;;
24787;SDS011;12883;52.662;5.196;2023-03-11T14:05:34;1.00;;;1.00;;
24787;SDS011;12883;52.662;5.196;2023-03-11T14:13:39;0.87;;;0.87;;
24787;SDS011;12883;52.662;5.196;2023-03-11T14:16:07;0.60;;;0.60;;
24787;SDS011;12883;52.662;5.196;2023-03-11T14:18:38;0.50;;;0.50;;
24787;SDS011;12883;52.662;5.196;2023-03-11T14:21:11;0.63;;;0.63;;
24787;SDS011;12883;52.662;5.196;2023-03-11T14:23:39;0.70;;;0.70;;
24787;SDS011;12883;52.662;5.196;2023-03-11T14:26:14;0.80;;;0.80;;
24787;SDS011;12883;52.662;5.196;2023-03-11T14:28:43;0.70;;;0.70;;
24787;SDS011;12883;52.662;5.196;2023-03-11T14:31:45;0.90;;;0.90;;
24787;SDS011;12883;52.662;5.196;2023-03-11T14:34:18;0.93;;;0.93;;
24787;SDS011;12883;52.662;5.196;2023-03-11T14:36:49;0.80;;;0.80;;
24787;SDS011;12883;52.662;5.196;2023-03-11T14:44:32;1.20;;;1.20;;
24787;SDS011;12883;52.662;5.196;2023-03-11T14:47:24;0.67;;;0.67;;
24787;SDS011;12883;52.662;5.196;2023-03-11T14:50:01;0.87;;;0.87;;
24787;SDS011;12883;52.662;5.196;2023-03-11T14:55:11;1.27;;;1.27;;
24787;SDS011;12883;52.662;5.196;2023-03-11T15:00:32;0.87;;;0.87;;
24787;SDS011;12883;52.662;5.196;2023-03-11T15:05:51;0.73;;;0.73;;
24787;SDS011;12883;52.662;5.196;2023-03-11T15:08:45;0.60;;;0.60;;
24787;SDS011;12883;52.662;5.196;2023-03-11T15:13:38;0.90;;;0.90;;
24787;SDS011;12883;52.662;5.196;2023-03-11T15:16:06;0.90;;;0.90;;
24787;SDS011;12883;52.662;5.196;2023-03-11T15:18:46;1.30;;;1.30;;
24787;SDS011;12883;52.662;5.196;2023-03-11T15:23:45;1.50;;;1.50;;
24787;SDS011;12883;52.662;5.196;2023-03-11T15:26:20;1.20;;;1.20;;
24787;SDS011;12883;52.662;5.196;2023-03-11T15:28:54;1.00;;;1.00;;
24787;SDS011;12883;52.662;5.196;2023-03-11T15:33:47;0.77;;;0.77;;
24787;SDS011;12883;52.662;5.196;2023-03-11T15:36:33;0.73;;;0.73;;
24787;SDS011;12883;52.662;5.196;2023-03-11T15:41:40;1.23;;;1.23;;
24787;SDS011;12883;52.662;5.196;2023-03-11T15:44:20;0.80;;;0.80;;
24787;SDS011;12883;52.662;5.196;2023-03-11T15:46:48;0.90;;;0.90;;
24787;SDS011;12883;52.662;5.196;2023-03-11T15:49:14;0.87;;;0.87;;
24787;SDS011;12883;52.662;5.196;2023-03-11T15:51:39;1.00;;;1.00;;
24787;SDS011;12883;52.662;5.196;2023-03-11T15:54:04;0.70;;;0.70;;
24787;SDS011;12883;52.662;5.196;2023-03-11T15:56:30;0.57;;;0.57;;
24787;SDS011;12883;52.662;5.196;2023-03-11T15:58:57;1.00;;;1.00;;
24787;SDS011;12883;52.662;5.196;2023-03-11T16:01:23;0.63;;;0.63;;
24787;SDS011;12883;52.662;5.196;2023-03-11T16:03:52;0.80;;;0.80;;
24787;SDS011;12883;52.662;5.196;2023-03-11T16:06:18;0.40;;;0.40;;
24787;SDS011;12883;52.662;5.196;2023-03-11T16:08:43;0.60;;;0.60;;
24787;SDS011;12883;52.662;5.196;2023-03-11T16:11:10;0.63;;;0.63;;
24787;SDS011;12883;52.662;5.196;2023-03-11T16:13:36;0.50;;;0.50;;
24787;SDS011;12883;52.662;5.196;2023-03-11T16:16:02;0.60;;;0.60;;
24787;SDS011;12883;52.662;5.196;2023-03-11T16:18:27;1.00;;;1.00;;
24787;SDS011;12883;52.662;5.196;2023-03-11T16:20:53;1.93;;;1.93;;
24787;SDS011;12883;52.662;5.196;2023-03-11T16:23:26;0.73;;;0.73;;
24787;SDS011;12883;52.662;5.196;2023-03-11T16:25:56;0.83;;;0.83;;
24787;SDS011;12883;52.662;5.196;2023-03-11T16:28:24;1.60;;;1.60;;
24787;SDS011;12883;52.662;5.196;2023-03-11T16:30:49;1.50;;;1.50;;
24787;SDS011;12883;52.662;5.196;2023-03-11T16:33:15;1.77;;;1.77;;
24787;SDS011;12883;52.662;5.196;2023-03-11T16:35:41;2.13;;;2.13;;
24787;SDS011;12883;52.662;5.196;2023-03-11T16:38:06;0.87;;;0.87;;
24787;SDS011;12883;52.662;5.196;2023-03-11T16:40:32;2.17;;;2.17;;